sensor_id;sensor_type;location;lat;lon;timestamp;P1;durP1;ratioP1;P2;durP2;ratioP2
53674;SDS011;39574;50.534;8.500;2023-05-18T00:03:37;3.1;;;0.9;;
53674;SDS011;39574;50.534;8.500;2023-05-18T00:08:35;3.5;;;0.9;;
53674;SDS011;39574;50.534;8.500;2023-05-18T00:13:35;3.1;;;0.9;;
53674;SDS011;39574;50.534;8.500;2023-05-18T00:18:34;2.7;;;0.8;;
53674;SDS011;39574;50.534;8.500;2023-05-18T00:23:32;2.5;;;0.8;;
53674;SDS011;39574;50.534;8.500;2023-05-18T00:28:31;2.3;;;0.8;;
53674;SDS011;39574;50.534;8.500;2023-05-18T00:33:30;2.3;;;0.8;;
53674;SDS011;39574;50.534;8.500;2023-05-18T00:38:29;2.5;;;0.9;;
53674;SDS011;39574;50.534;8.500;2023-05-18T00:43:33;2.6;;;1.1;;
53674;SDS011;39574;50.534;8.500;2023-05-18T00:48:27;2.5;;;1.0;;
53674;SDS011;39574;50.534;8.500;2023-05-18T00:53:26;2.4;;;0.8;;
53674;SDS011;39574;50.534;8.500;2023-05-18T00:58:25;2.4;;;0.8;;
53674;SDS011;39574;50.534;8.500;2023-05-18T01:03:23;2.3;;;0.8;;
53674;SDS011;39574;50.534;8.500;2023-05-18T01:18:22;2.4;;;0.8;;
53674;SDS011;39574;50.534;8.500;2023-05-18T01:23:29;2.3;;;0.7;;
53674;SDS011;39574;50.534;8.500;2023-05-18T01:28:19;2.4;;;0.8;;
53674;SDS011;39574;50.534;8.500;2023-05-18T01:33:20;2.4;;;0.8;;
53674;SDS011;39574;50.534;8.500;2023-05-18T01:38:18;2.4;;;0.9;;
53674;SDS011;39574;50.534;8.500;2023-05-18T01:43:16;2.4;;;0.9;;
53674;SDS011;39574;50.534;8.500;2023-05-18T01:48:15;2.5;;;1.0;;
53674;SDS011;39574;50.534;8.500;2023-05-18T01:53:16;2.5;;;1.0;;
53674;SDS011;39574;50.534;8.500;2023-05-18T01:58:12;2.8;;;1.0;;
53674;SDS011;39574;50.534;8.500;2023-05-18T02:03:11;2.7;;;1.0;;
53674;SDS011;39574;50.534;8.500;2023-05-18T02:08:09;2.5;;;0.8;;
53674;SDS011;39574;50.534;8.500;2023-05-18T02:13:08;4.0;;;1.4;;
53674;SDS011;39574;50.534;8.500;2023-05-18T02:18:07;3.5;;;1.2;;
53674;SDS011;39574;50.534;8.500;2023-05-18T02:23:06;3.1;;;1.1;;
53674;SDS011;39574;50.534;8.500;2023-05-18T02:28:05;2.7;;;1.0;;
53674;SDS011;39574;50.534;8.500;2023-05-18T02:38:02;2.4;;;0.8;;
53674;SDS011;39574;50.534;8.500;2023-05-18T02:43:01;2.4;;;0.9;;
53674;SDS011;39574;50.534;8.500;2023-05-18T02:48:05;2.4;;;0.9;;
53674;SDS011;39574;50.534;8.500;2023-05-18T02:53:00;2.5;;;0.9;;
53674;SDS011;39574;50.534;8.500;2023-05-18T02:57:57;2.5;;;0.9;;
53674;SDS011;39574;50.534;8.500;2023-05-18T03:02:56;2.9;;;1.0;;
53674;SDS011;39574;50.534;8.500;2023-05-18T03:07:55;2.7;;;0.9;;
53674;SDS011;39574;50.534;8.500;2023-05-18T03:12:54;3.0;;;1.3;;
53674;SDS011;39574;50.534;8.500;2023-05-18T03:22:51;4.2;;;1.2;;
53674;SDS011;39574;50.534;8.500;2023-05-18T03:27:51;4.0;;;1.3;;
53674;SDS011;39574;50.534;8.500;2023-05-18T03:32:54;4.2;;;1.2;;
53674;SDS011;39574;50.534;8.500;2023-05-18T03:37:49;4.0;;;1.2;;
53674;SDS011;39574;50.534;8.500;2023-05-18T03:42:47;6.4;;;2.1;;
53674;SDS011;39574;50.534;8.500;2023-05-18T03:47:46;5.3;;;1.8;;
53674;SDS011;39574;50.534;8.500;2023-05-18T03:52:44;4.4;;;1.7;;
53674;SDS011;39574;50.534;8.500;2023-05-18T03:57:44;3.5;;;1.4;;
53674;SDS011;39574;50.534;8.500;2023-05-18T04:02:42;2.6;;;1.1;;
53674;SDS011;39574;50.534;8.500;2023-05-18T04:07:41;2.5;;;1.0;;
53674;SDS011;39574;50.534;8.500;2023-05-18T04:12:40;2.4;;;0.9;;
53674;SDS011;39574;50.534;8.500;2023-05-18T04:22:39;2.3;;;0.9;;
53674;SDS011;39574;50.534;8.500;2023-05-18T04:32:35;2.5;;;0.9;;
53674;SDS011;39574;50.534;8.500;2023-05-18T04:37:33;2.4;;;0.8;;
53674;SDS011;39574;50.534;8.500;2023-05-18T04:42:32;2.4;;;0.9;;
53674;SDS011;39574;50.534;8.500;2023-05-18T04:47:31;2.4;;;0.8;;
53674;SDS011;39574;50.534;8.500;2023-05-18T04:52:30;2.3;;;0.8;;
53674;SDS011;39574;50.534;8.500;2023-05-18T04:57:29;2.3;;;0.8;;
53674;SDS011;39574;50.534;8.500;2023-05-18T05:02:27;2.6;;;0.9;;
53674;SDS011;39574;50.534;8.500;2023-05-18T05:07:26;2.6;;;0.9;;
53674;SDS011;39574;50.534;8.500;2023-05-18T05:17:24;2.5;;;0.9;;
53674;SDS011;39574;50.534;8.500;2023-05-18T05:22:23;2.4;;;0.9;;
53674;SDS011;39574;50.534;8.500;2023-05-18T05:27:21;2.5;;;1.0;;
53674;SDS011;39574;50.534;8.500;2023-05-18T05:32:21;2.4;;;1.0;;
53674;SDS011;39574;50.534;8.500;2023-05-18T05:37:20;2.4;;;0.9;;
53674;SDS011;39574;50.534;8.500;2023-05-18T05:42:18;2.3;;;0.9;;
53674;SDS011;39574;50.534;8.500;2023-05-18T05:47:18;2.4;;;0.8;;
53674;SDS011;39574;50.534;8.500;2023-05-18T05:52:16;2.4;;;0.8;;
53674;SDS011;39574;50.534;8.500;2023-05-18T05:57:15;2.7;;;0.9;;
53674;SDS011;39574;50.534;8.500;2023-05-18T06:02:13;2.6;;;0.8;;
53674;SDS011;39574;50.534;8.500;2023-05-18T06:07:13;2.5;;;0.8;;
53674;SDS011;39574;50.534;8.500;2023-05-18T06:12:12;2.4;;;0.8;;
53674;SDS011;39574;50.534;8.500;2023-05-18T06:22:09;2.3;;;0.8;;
53674;SDS011;39574;50.534;8.500;2023-05-18T06:27:08;2.3;;;0.7;;
53674;SDS011;39574;50.534;8.500;2023-05-18T06:32:08;2.3;;;0.7;;
53674;SDS011;39574;50.534;8.500;2023-05-18T06:37:06;2.3;;;0.7;;
53674;SDS011;39574;50.534;8.500;2023-05-18T06:42:06;2.3;;;0.6;;
53674;SDS011;39574;50.534;8.500;2023-05-18T06:47:05;2.5;;;0.9;;
53674;SDS011;39574;50.534;8.500;2023-05-18T06:52:03;2.4;;;0.8;;
53674;SDS011;39574;50.534;8.500;2023-05-18T06:57:02;2.4;;;0.8;;
53674;SDS011;39574;50.534;8.500;2023-05-18T07:02:01;2.4;;;0.8;;
53674;SDS011;39574;50.534;8.500;2023-05-18T07:07:00;2.4;;;0.7;;
53674;SDS011;39574;50.534;8.500;2023-05-18T07:11:58;2.6;;;0.9;;
53674;SDS011;39574;50.534;8.500;2023-05-18T07:16:57;3.1;;;1.0;;
53674;SDS011;39574;50.534;8.500;2023-05-18T07:22:01;2.8;;;0.9;;
53674;SDS011;39574;50.534;8.500;2023-05-18T07:26:56;2.6;;;0.8;;
53674;SDS011;39574;50.534;8.500;2023-05-18T07:31:59;2.4;;;0.7;;
53674;SDS011;39574;50.534;8.500;2023-05-18T07:36:54;2.2;;;0.6;;
53674;SDS011;39574;50.534;8.500;2023-05-18T07:41:52;2.3;;;0.7;;
53674;SDS011;39574;50.534;8.500;2023-05-18T07:46:56;2.5;;;0.8;;
53674;SDS011;39574;50.534;8.500;2023-05-18T07:51:51;2.5;;;0.8;;
53674;SDS011;39574;50.534;8.500;2023-05-18T07:56:50;2.6;;;0.9;;
53674;SDS011;39574;50.534;8.500;2023-05-18T08:01:49;2.5;;;0.8;;
53674;SDS011;39574;50.534;8.500;2023-05-18T08:06:49;3.2;;;0.7;;
53674;SDS011;39574;50.534;8.500;2023-05-18T08:11:47;3.9;;;0.9;;
53674;SDS011;39574;50.534;8.500;2023-05-18T08:21:46;3.6;;;1.1;;
53674;SDS011;39574;50.534;8.500;2023-05-18T08:26:45;3.2;;;1.0;;
53674;SDS011;39574;50.534;8.500;2023-05-18T08:31:43;4.6;;;1.0;;
53674;SDS011;39574;50.534;8.500;2023-05-18T08:36:43;3.9;;;0.9;;
53674;SDS011;39574;50.534;8.500;2023-05-18T08:41:47;3.3;;;0.7;;
53674;SDS011;39574;50.534;8.500;2023-05-18T08:46:41;2.8;;;0.7;;
53674;SDS011;39574;50.534;8.500;2023-05-18T08:51:45;2.7;;;1.0;;
53674;SDS011;39574;50.534;8.500;2023-05-18T08:56:39;3.4;;;1.2;;
53674;SDS011;39574;50.534;8.500;2023-05-18T09:01:39;3.4;;;1.0;;
53674;SDS011;39574;50.534;8.500;2023-05-18T09:06:41;2.9;;;0.8;;
53674;SDS011;39574;50.534;8.500;2023-05-18T09:11:37;2.8;;;0.8;;
53674;SDS011;39574;50.534;8.500;2023-05-18T09:16:36;2.6;;;0.8;;
53674;SDS011;39574;50.534;8.500;2023-05-18T09:21:36;2.5;;;0.8;;
53674;SDS011;39574;50.534;8.500;2023-05-18T09:26:35;2.4;;;0.7;;
53674;SDS011;39574;50.534;8.500;2023-05-18T09:31:37;2.7;;;0.6;;
53674;SDS011;39574;50.534;8.500;2023-05-18T09:36:33;2.7;;;0.7;;
53674;SDS011;39574;50.534;8.500;2023-05-18T09:41:32;2.7;;;0.8;;
53674;SDS011;39574;50.534;8.500;2023-05-18T09:46:35;2.6;;;0.8;;
53674;SDS011;39574;50.534;8.500;2023-05-18T09:51:33;2.7;;;0.7;;
53674;SDS011;39574;50.534;8.500;2023-05-18T09:56:33;2.6;;;0.7;;
53674;SDS011;39574;50.534;8.500;2023-05-18T10:01:30;3.0;;;0.8;;
53674;SDS011;39574;50.534;8.500;2023-05-18T10:06:29;4.5;;;1.7;;
53674;SDS011;39574;50.534;8.500;2023-05-18T10:11:30;3.2;;;1.2;;
53674;SDS011;39574;50.534;8.500;2023-05-18T10:16:27;3.4;;;0.9;;
53674;SDS011;39574;50.534;8.500;2023-05-18T10:26:27;2.9;;;0.8;;
53674;SDS011;39574;50.534;8.500;2023-05-18T10:31:26;2.5;;;0.6;;
53674;SDS011;39574;50.534;8.500;2023-05-18T10:36:25;4.2;;;0.7;;
53674;SDS011;39574;50.534;8.500;2023-05-18T10:41:24;3.6;;;0.6;;
53674;SDS011;39574;50.534;8.500;2023-05-18T10:46:24;3.1;;;0.6;;
53674;SDS011;39574;50.534;8.500;2023-05-18T10:51:23;3.5;;;0.8;;
53674;SDS011;39574;50.534;8.500;2023-05-18T10:56:23;2.9;;;0.7;;
53674;SDS011;39574;50.534;8.500;2023-05-18T11:01:22;2.6;;;0.6;;
53674;SDS011;39574;50.534;8.500;2023-05-18T11:06:22;2.4;;;0.6;;
53674;SDS011;39574;50.534;8.500;2023-05-18T11:11:21;2.3;;;0.6;;
53674;SDS011;39574;50.534;8.500;2023-05-18T11:16:19;2.4;;;0.8;;
53674;SDS011;39574;50.534;8.500;2023-05-18T11:21:20;2.5;;;0.9;;
53674;SDS011;39574;50.534;8.500;2023-05-18T11:26:18;2.5;;;0.9;;
53674;SDS011;39574;50.534;8.500;2023-05-18T11:31:17;2.7;;;0.9;;
53674;SDS011;39574;50.534;8.500;2023-05-18T11:36:21;3.4;;;1.0;;
53674;SDS011;39574;50.534;8.500;2023-05-18T11:41:33;3.2;;;0.9;;
53674;SDS011;39574;50.534;8.500;2023-05-18T11:46:16;2.9;;;0.8;;
53674;SDS011;39574;50.534;8.500;2023-05-18T11:51:15;2.9;;;0.8;;
53674;SDS011;39574;50.534;8.500;2023-05-18T11:56:14;2.5;;;0.7;;
53674;SDS011;39574;50.534;8.500;2023-05-18T12:01:14;2.5;;;0.7;;
53674;SDS011;39574;50.534;8.500;2023-05-18T12:06:13;2.3;;;0.6;;
53674;SDS011;39574;50.534;8.500;2023-05-18T12:11:17;2.3;;;0.6;;
53674;SDS011;39574;50.534;8.500;2023-05-18T12:16:12;2.3;;;0.5;;
53674;SDS011;39574;50.534;8.500;2023-05-18T12:21:19;3.0;;;0.9;;
53674;SDS011;39574;50.534;8.500;2023-05-18T12:26:15;2.8;;;0.8;;
53674;SDS011;39574;50.534;8.500;2023-05-18T12:31:10;2.6;;;0.8;;
53674;SDS011;39574;50.534;8.500;2023-05-18T12:36:09;3.0;;;0.9;;
53674;SDS011;39574;50.534;8.500;2023-05-18T12:41:09;2.8;;;0.8;;
53674;SDS011;39574;50.534;8.500;2023-05-18T12:46:09;2.7;;;0.7;;
53674;SDS011;39574;50.534;8.500;2023-05-18T12:51:16;2.5;;;0.6;;
53674;SDS011;39574;50.534;8.500;2023-05-18T12:56:07;2.2;;;0.5;;
53674;SDS011;39574;50.534;8.500;2023-05-18T13:01:07;2.2;;;0.5;;
53674;SDS011;39574;50.534;8.500;2023-05-18T13:06:06;2.2;;;0.5;;
53674;SDS011;39574;50.534;8.500;2023-05-18T13:11:07;2.2;;;0.5;;
53674;SDS011;39574;50.534;8.500;2023-05-18T13:16:08;2.2;;;0.5;;
53674;SDS011;39574;50.534;8.500;2023-05-18T13:21:05;2.2;;;0.5;;
53674;SDS011;39574;50.534;8.500;2023-05-18T13:26:04;2.2;;;0.5;;
53674;SDS011;39574;50.534;8.500;2023-05-18T13:31:04;2.1;;;0.5;;
53674;SDS011;39574;50.534;8.500;2023-05-18T13:36:03;2.2;;;0.5;;
53674;SDS011;39574;50.534;8.500;2023-05-18T13:41:02;2.2;;;0.5;;
53674;SDS011;39574;50.534;8.500;2023-05-18T13:46:02;3.5;;;0.8;;
53674;SDS011;39574;50.534;8.500;2023-05-18T13:51:02;3.4;;;0.8;;
53674;SDS011;39574;50.534;8.500;2023-05-18T13:56:00;3.0;;;0.7;;
53674;SDS011;39574;50.534;8.500;2023-05-18T14:01:00;3.4;;;0.7;;
53674;SDS011;39574;50.534;8.500;2023-05-18T14:06:00;3.0;;;0.8;;
53674;SDS011;39574;50.534;8.500;2023-05-18T14:11:02;2.9;;;0.8;;
53674;SDS011;39574;50.534;8.500;2023-05-18T14:15:58;2.7;;;0.8;;
53674;SDS011;39574;50.534;8.500;2023-05-18T14:20:58;2.6;;;0.8;;
53674;SDS011;39574;50.534;8.500;2023-05-18T14:25:57;2.4;;;0.6;;
53674;SDS011;39574;50.534;8.500;2023-05-18T14:31:01;2.3;;;0.5;;
53674;SDS011;39574;50.534;8.500;2023-05-18T14:35:56;2.8;;;0.6;;
53674;SDS011;39574;50.534;8.500;2023-05-18T14:40:55;2.6;;;0.6;;
53674;SDS011;39574;50.534;8.500;2023-05-18T14:45:55;2.7;;;0.7;;
53674;SDS011;39574;50.534;8.500;2023-05-18T14:50:55;3.1;;;0.7;;
53674;SDS011;39574;50.534;8.500;2023-05-18T14:55:53;2.8;;;0.6;;
53674;SDS011;39574;50.534;8.500;2023-05-18T15:00:53;2.6;;;0.6;;
53674;SDS011;39574;50.534;8.500;2023-05-18T15:05:53;2.4;;;0.6;;
53674;SDS011;39574;50.534;8.500;2023-05-18T15:10:52;2.3;;;0.7;;
53674;SDS011;39574;50.534;8.500;2023-05-18T15:15:52;2.4;;;0.6;;
53674;SDS011;39574;50.534;8.500;2023-05-18T15:20:51;2.5;;;0.7;;
53674;SDS011;39574;50.534;8.500;2023-05-18T15:25:50;2.7;;;0.7;;
53674;SDS011;39574;50.534;8.500;2023-05-18T15:30:49;2.5;;;0.5;;
53674;SDS011;39574;50.534;8.500;2023-05-18T15:35:49;2.3;;;0.5;;
53674;SDS011;39574;50.534;8.500;2023-05-18T15:40:48;5.5;;;0.5;;
53674;SDS011;39574;50.534;8.500;2023-05-18T15:50:47;4.8;;;0.5;;
53674;SDS011;39574;50.534;8.500;2023-05-18T15:55:47;3.9;;;0.5;;
53674;SDS011;39574;50.534;8.500;2023-05-18T16:00:47;3.1;;;0.6;;
53674;SDS011;39574;50.534;8.500;2023-05-18T16:05:46;2.3;;;0.7;;
53674;SDS011;39574;50.534;8.500;2023-05-18T16:10:45;2.6;;;0.8;;
53674;SDS011;39574;50.534;8.500;2023-05-18T16:15:45;2.5;;;0.8;;
53674;SDS011;39574;50.534;8.500;2023-05-18T16:20:44;3.4;;;1.1;;
53674;SDS011;39574;50.534;8.500;2023-05-18T16:25:44;3.5;;;1.4;;
53674;SDS011;39574;50.534;8.500;2023-05-18T16:30:43;4.6;;;2.5;;
53674;SDS011;39574;50.534;8.500;2023-05-18T16:35:43;6.4;;;4.0;;
53674;SDS011;39574;50.534;8.500;2023-05-18T16:40:43;10.7;;;7.2;;
53674;SDS011;39574;50.534;8.500;2023-05-18T16:45:41;11.0;;;7.7;;
53674;SDS011;39574;50.534;8.500;2023-05-18T16:50:41;7.9;;;5.2;;
53674;SDS011;39574;50.534;8.500;2023-05-18T16:55:40;8.3;;;4.9;;
53674;SDS011;39574;50.534;8.500;2023-05-18T17:00:40;5.9;;;3.2;;
53674;SDS011;39574;50.534;8.500;2023-05-18T17:05:39;4.9;;;2.2;;
53674;SDS011;39574;50.534;8.500;2023-05-18T17:10:41;4.8;;;1.7;;
53674;SDS011;39574;50.534;8.500;2023-05-18T17:15:38;3.5;;;1.0;;
53674;SDS011;39574;50.534;8.500;2023-05-18T17:20:40;4.6;;;1.0;;
53674;SDS011;39574;50.534;8.500;2023-05-18T17:25:38;3.7;;;0.8;;
53674;SDS011;39574;50.534;8.500;2023-05-18T17:30:36;3.2;;;0.9;;
53674;SDS011;39574;50.534;8.500;2023-05-18T17:35:35;2.8;;;0.9;;
53674;SDS011;39574;50.534;8.500;2023-05-18T17:40:35;2.3;;;0.7;;
53674;SDS011;39574;50.534;8.500;2023-05-18T17:45:35;2.3;;;0.7;;
53674;SDS011;39574;50.534;8.500;2023-05-18T17:50:34;3.0;;;0.5;;
53674;SDS011;39574;50.534;8.500;2023-05-18T17:55:34;2.9;;;0.6;;
53674;SDS011;39574;50.534;8.500;2023-05-18T18:00:32;2.8;;;0.6;;
53674;SDS011;39574;50.534;8.500;2023-05-18T18:05:32;2.5;;;0.6;;
53674;SDS011;39574;50.534;8.500;2023-05-18T18:10:31;2.3;;;0.6;;
53674;SDS011;39574;50.534;8.500;2023-05-18T18:15:35;2.4;;;0.6;;
53674;SDS011;39574;50.534;8.500;2023-05-18T18:20:30;2.3;;;0.5;;
53674;SDS011;39574;50.534;8.500;2023-05-18T18:25:29;2.3;;;0.5;;
53674;SDS011;39574;50.534;8.500;2023-05-18T18:30:28;2.2;;;0.5;;
53674;SDS011;39574;50.534;8.500;2023-05-18T18:35:28;2.2;;;0.5;;
53674;SDS011;39574;50.534;8.500;2023-05-18T18:40:31;2.4;;;0.7;;
53674;SDS011;39574;50.534;8.500;2023-05-18T18:45:26;2.3;;;0.6;;
53674;SDS011;39574;50.534;8.500;2023-05-18T18:50:25;2.3;;;0.6;;
53674;SDS011;39574;50.534;8.500;2023-05-18T18:55:24;2.6;;;0.7;;
53674;SDS011;39574;50.534;8.500;2023-05-18T19:00:24;2.6;;;0.6;;
53674;SDS011;39574;50.534;8.500;2023-05-18T19:05:23;3.6;;;0.6;;
53674;SDS011;39574;50.534;8.500;2023-05-18T19:10:22;3.5;;;0.7;;
53674;SDS011;39574;50.534;8.500;2023-05-18T19:15:21;3.2;;;0.7;;
53674;SDS011;39574;50.534;8.500;2023-05-18T19:20:21;2.8;;;0.7;;
53674;SDS011;39574;50.534;8.500;2023-05-18T19:25:20;2.5;;;0.6;;
53674;SDS011;39574;50.534;8.500;2023-05-18T19:30:19;2.4;;;0.6;;
53674;SDS011;39574;50.534;8.500;2023-05-18T19:35:21;3.2;;;0.8;;
53674;SDS011;39574;50.534;8.500;2023-05-18T19:40:17;3.0;;;0.7;;
53674;SDS011;39574;50.534;8.500;2023-05-18T19:45:17;2.6;;;0.6;;
53674;SDS011;39574;50.534;8.500;2023-05-18T19:50:16;2.4;;;0.5;;
53674;SDS011;39574;50.534;8.500;2023-05-18T19:55:16;3.0;;;1.0;;
53674;SDS011;39574;50.534;8.500;2023-05-18T20:00:15;2.8;;;0.9;;
53674;SDS011;39574;50.534;8.500;2023-05-18T20:05:14;2.7;;;0.9;;
53674;SDS011;39574;50.534;8.500;2023-05-18T20:10:13;3.0;;;0.9;;
53674;SDS011;39574;50.534;8.500;2023-05-18T20:15:13;2.7;;;0.7;;
53674;SDS011;39574;50.534;8.500;2023-05-18T20:20:11;2.6;;;0.7;;
53674;SDS011;39574;50.534;8.500;2023-05-18T20:25:11;2.6;;;0.8;;
53674;SDS011;39574;50.534;8.500;2023-05-18T20:30:10;2.4;;;0.7;;
53674;SDS011;39574;50.534;8.500;2023-05-18T20:35:09;2.4;;;0.7;;
53674;SDS011;39574;50.534;8.500;2023-05-18T20:40:08;2.5;;;0.7;;
53674;SDS011;39574;50.534;8.500;2023-05-18T20:45:07;2.4;;;0.6;;
53674;SDS011;39574;50.534;8.500;2023-05-18T20:50:07;2.3;;;0.6;;
53674;SDS011;39574;50.534;8.500;2023-05-18T20:55:06;2.5;;;0.8;;
53674;SDS011;39574;50.534;8.500;2023-05-18T21:00:05;2.5;;;0.8;;
53674;SDS011;39574;50.534;8.500;2023-05-18T21:05:04;2.4;;;0.7;;
53674;SDS011;39574;50.534;8.500;2023-05-18T21:10:03;2.3;;;0.6;;
53674;SDS011;39574;50.534;8.500;2023-05-18T21:15:02;2.3;;;0.6;;
53674;SDS011;39574;50.534;8.500;2023-05-18T21:20:01;2.5;;;0.7;;
53674;SDS011;39574;50.534;8.500;2023-05-18T21:25:00;2.4;;;0.6;;
53674;SDS011;39574;50.534;8.500;2023-05-18T21:30:00;2.3;;;0.6;;
53674;SDS011;39574;50.534;8.500;2023-05-18T21:34:59;3.1;;;0.7;;
53674;SDS011;39574;50.534;8.500;2023-05-18T21:39:58;2.9;;;0.7;;
53674;SDS011;39574;50.534;8.500;2023-05-18T21:44:58;3.7;;;1.1;;
53674;SDS011;39574;50.534;8.500;2023-05-18T21:49:56;3.3;;;1.0;;
53674;SDS011;39574;50.534;8.500;2023-05-18T21:54:55;3.0;;;1.0;;
53674;SDS011;39574;50.534;8.500;2023-05-18T21:59:54;2.7;;;0.9;;
53674;SDS011;39574;50.534;8.500;2023-05-18T22:04:53;2.4;;;0.7;;
53674;SDS011;39574;50.534;8.500;2023-05-18T22:09:52;2.3;;;0.6;;
53674;SDS011;39574;50.534;8.500;2023-05-18T22:14:51;3.1;;;0.9;;
53674;SDS011;39574;50.534;8.500;2023-05-18T22:19:50;2.9;;;0.8;;
53674;SDS011;39574;50.534;8.500;2023-05-18T22:24:53;2.6;;;0.6;;
53674;SDS011;39574;50.534;8.500;2023-05-18T22:29:49;2.7;;;0.7;;
53674;SDS011;39574;50.534;8.500;2023-05-18T22:34:48;2.4;;;0.6;;
53674;SDS011;39574;50.534;8.500;2023-05-18T22:39:48;2.3;;;0.6;;
53674;SDS011;39574;50.534;8.500;2023-05-18T22:44:47;2.5;;;0.7;;
53674;SDS011;39574;50.534;8.500;2023-05-18T22:49:46;2.4;;;0.6;;
53674;SDS011;39574;50.534;8.500;2023-05-18T22:54:45;2.5;;;0.7;;
53674;SDS011;39574;50.534;8.500;2023-05-18T23:04:43;2.4;;;0.6;;
53674;SDS011;39574;50.534;8.500;2023-05-18T23:09:42;2.3;;;0.6;;
53674;SDS011;39574;50.534;8.500;2023-05-18T23:14:41;2.4;;;0.7;;
53674;SDS011;39574;50.534;8.500;2023-05-18T23:19:40;2.3;;;0.7;;
53674;SDS011;39574;50.534;8.500;2023-05-18T23:24:39;2.3;;;0.6;;
53674;SDS011;39574;50.534;8.500;2023-05-18T23:29:38;2.3;;;0.7;;
53674;SDS011;39574;50.534;8.500;2023-05-18T23:34:38;2.3;;;0.6;;
53674;SDS011;39574;50.534;8.500;2023-05-18T23:39:37;2.2;;;0.6;;
53674;SDS011;39574;50.534;8.500;2023-05-18T23:44:36;2.4;;;0.6;;
53674;SDS011;39574;50.534;8.500;2023-05-18T23:49:35;2.3;;;0.6;;
53674;SDS011;39574;50.534;8.500;2023-05-18T23:54:34;2.3;;;0.6;;
53674;SDS011;39574;50.534;8.500;2023-05-18T23:59:33;2.2;;;0.5;;
